Time;durP1;ratioP1;P1;durP2;ratioP2;P2;SDS_P1;SDS_P2;PMS_P1;PMS_P2;Temp;Humidity;BMP_temperature;BMP_pressure;BME280_temperature;BME280_humidity;BME280_pressure;Samples;Min_cycle;Max_cycle;Signal;HPM_P1;HPM_P2
2024/02/09 00:01:22;;;;;;;7.22;5.05;;;1.60;99.90;;;;;;7369844;19;20018;-66
2024/02/09 00:03:49;;;;;;;4.57;3.28;;;1.70;99.90;;;;;;7370500;19;20018;-66
2024/02/09 00:06:16;;;;;;;7.10;5.00;;;1.70;99.90;;;;;;7362935;19;20116;-63
2024/02/09 00:08:43;;;;;;;6.70;4.90;;;1.70;99.90;;;;;;7372018;19;20024;-63
2024/02/09 00:11:11;;;;;;;7.45;5.70;;;1.70;99.90;;;;;;7364566;19;20799;-64
2024/02/09 00:13:42;;;;;;;7.85;6.07;;;1.70;99.90;;;;;;7369605;19;20639;-64
2024/02/09 00:16:10;;;;;;;8.77;5.85;;;1.70;99.90;;;;;;7373982;19;20648;-63
2024/02/09 00:18:36;;;;;;;7.80;5.82;;;1.70;99.90;;;;;;7376650;19;20019;-63
2024/02/09 00:21:02;;;;;;;6.78;4.30;;;1.70;99.90;;;;;;7375478;19;20018;-63
2024/02/09 00:23:29;;;;;;;8.30;5.75;;;1.70;99.90;;;;;;7378774;19;20616;-66
2024/02/09 00:25:55;;;;;;;8.18;6.07;;;1.70;99.90;;;;;;7375698;19;20018;-64
2024/02/09 00:28:23;;;;;;;9.23;6.03;;;1.60;99.90;;;;;;7370723;19;20026;-66
2024/02/09 00:30:49;;;;;;;8.95;6.53;;;1.70;99.90;;;;;;7377720;19;20055;-66
2024/02/09 00:33:16;;;;;;;8.48;6.13;;;1.70;99.90;;;;;;7374602;19;20018;-64
2024/02/09 00:35:42;;;;;;;9.05;6.35;;;1.70;99.90;;;;;;7379219;19;20022;-64
2024/02/09 00:38:09;;;;;;;8.10;6.00;;;1.70;99.90;;;;;;7372440;19;20034;-64
2024/02/09 00:40:36;;;;;;;8.50;5.57;;;1.70;99.90;;;;;;7373944;19;20022;-64
2024/02/09 00:43:02;;;;;;;8.85;6.00;;;1.80;99.90;;;;;;7373238;19;20018;-67
2024/02/09 00:45:36;;;;;;;8.38;5.25;;;1.80;99.90;;;;;;7376769;19;20101;-67
2024/02/09 00:48:03;;;;;;;9.32;5.72;;;1.80;99.90;;;;;;7373917;19;21372;-66
2024/02/09 00:50:32;;;;;;;8.52;6.15;;;1.80;99.90;;;;;;7374662;19;20053;-66
2024/02/09 00:53:04;;;;;;;7.57;5.20;;;1.80;99.90;;;;;;7373699;19;20023;-64
2024/02/09 00:55:31;;;;;;;7.22;4.22;;;1.80;99.90;;;;;;7375738;19;20018;-67
2024/02/09 00:57:57;;;;;;;9.10;6.32;;;1.80;99.90;;;;;;7374141;19;20077;-66
2024/02/09 01:00:26;;;;;;;9.88;6.55;;;1.80;99.90;;;;;;7378815;19;20011;-67
2024/02/09 01:02:52;;;;;;;10.13;6.57;;;1.80;99.90;;;;;;7373532;19;20037;-67
2024/02/09 01:05:19;;;;;;;10.18;6.70;;;1.80;99.90;;;;;;7372716;19;20116;-64
2024/02/09 01:07:46;;;;;;;9.95;7.22;;;1.80;99.90;;;;;;7366872;19;20499;-64
2024/02/09 01:10:13;;;;;;;8.95;6.05;;;1.80;99.90;;;;;;7373281;19;20018;-64
2024/02/09 02:46:15;;;;;;;16.65;8.55;;;2.30;99.90;;;;;;7370150;19;20018;-63
2024/02/09 03:05:26;;;;;;;15.50;7.28;;;2.40;99.90;;;;;;7370077;19;20105;-63
2024/02/09 03:07:57;;;;;;;15.40;7.30;;;2.40;99.90;;;;;;7365110;19;20018;-64
2024/02/09 03:10:25;;;;;;;13.70;7.32;;;2.40;99.90;;;;;;7360449;19;20043;-64
2024/02/09 03:12:53;;;;;;;17.77;7.38;;;2.40;99.90;;;;;;7362207;19;20010;-64
2024/02/09 03:15:22;;;;;;;16.00;6.93;;;2.40;99.90;;;;;;7369695;19;20022;-64
2024/02/09 03:17:51;;;;;;;17.38;8.05;;;2.40;99.90;;;;;;7371790;19;20785;-64
2024/02/09 03:20:18;;;;;;;16.65;7.72;;;2.50;99.90;;;;;;7367544;19;20096;-64
2024/02/09 03:22:46;;;;;;;14.15;7.13;;;2.50;99.90;;;;;;7367414;19;20092;-64
2024/02/09 03:25:13;;;;;;;13.52;7.10;;;2.50;99.90;;;;;;7364527;19;20029;-64
2024/02/09 03:27:41;;;;;;;17.00;8.30;;;2.50;99.90;;;;;;7371132;19;20055;-67
2024/02/09 03:30:08;;;;;;;19.73;8.57;;;2.60;99.90;;;;;;7372727;19;20022;-67
2024/02/09 03:32:36;;;;;;;21.10;8.65;;;2.60;99.90;;;;;;7365768;19;20022;-66
2024/02/09 03:35:05;;;;;;;16.27;7.85;;;2.60;99.90;;;;;;7370017;19;20022;-66
2024/02/09 03:37:33;;;;;;;14.82;6.97;;;2.60;99.90;;;;;;7362953;19;20026;-66
2024/02/09 03:40:08;;;;;;;21.73;9.07;;;2.60;99.90;;;;;;7370186;19;20025;-66
2024/02/09 03:42:34;;;;;;;16.55;8.23;;;2.70;99.90;;;;;;7366075;19;20029;-64
2024/02/09 03:45:00;;;;;;;16.27;7.72;;;2.70;99.90;;;;;;7365231;19;20879;-63
2024/02/09 03:47:27;;;;;;;17.30;8.65;;;2.70;99.90;;;;;;7363663;19;20130;-64
2024/02/09 03:49:54;;;;;;;16.35;7.75;;;2.70;99.90;;;;;;7366242;19;20022;-64
2024/02/09 03:52:22;;;;;;;12.48;6.40;;;2.70;99.90;;;;;;7364600;19;20074;-64
2024/02/09 03:54:52;;;;;;;18.00;9.15;;;2.70;99.90;;;;;;7369673;19;20439;-64
2024/02/09 03:57:23;;;;;;;21.10;9.18;;;2.70;99.90;;;;;;7369784;19;20011;-65
2024/02/09 03:59:50;;;;;;;17.58;9.85;;;2.70;99.90;;;;;;7366298;19;20026;-65
2024/02/09 04:02:18;;;;;;;19.88;9.23;;;2.70;99.90;;;;;;7370597;19;20026;-65
2024/02/09 04:04:48;;;;;;;15.25;6.95;;;2.70;99.90;;;;;;7359953;19;20850;-65
2024/02/09 04:07:15;;;;;;;19.85;8.73;;;2.70;99.90;;;;;;7368614;19;20030;-65
2024/02/09 04:09:42;;;;;;;22.77;9.05;;;2.70;99.90;;;;;;7356644;19;20022;-65
2024/02/09 04:12:10;;;;;;;23.30;10.13;;;2.70;99.90;;;;;;7370360;19;20036;-65
2024/02/09 04:14:36;;;;;;;23.67;9.82;;;2.70;99.90;;;;;;7369515;19;20053;-65
2024/02/09 04:17:06;;;;;;;22.90;9.98;;;2.70;99.90;;;;;;7368675;19;20045;-65
2024/02/09 04:19:34;;;;;;;21.98;9.20;;;2.80;99.90;;;;;;7359317;19;20027;-65
2024/02/09 04:22:00;;;;;;;26.55;10.73;;;2.80;99.90;;;;;;7369214;19;20018;-64
2024/02/09 04:24:27;;;;;;;22.95;10.63;;;2.80;99.90;;;;;;7364137;19;20026;-65
2024/02/09 04:26:54;;;;;;;23.33;9.77;;;2.80;99.90;;;;;;7367920;19;20033;-65
2024/02/09 04:29:24;;;;;;;30.42;12.27;;;2.80;99.90;;;;;;7366879;19;20049;-65
2024/02/09 04:31:52;;;;;;;26.60;10.75;;;2.90;99.90;;;;;;7365775;19;21758;-67
2024/02/09 04:34:18;;;;;;;27.27;11.88;;;2.90;99.90;;;;;;7365321;19;20015;-65
2024/02/09 04:36:47;;;;;;;28.33;11.38;;;3.00;99.90;;;;;;7365492;19;20025;-65
2024/02/09 04:39:15;;;;;;;25.92;11.60;;;3.00;99.90;;;;;;7369074;19;20101;-65
2024/02/09 04:41:45;;;;;;;26.08;11.15;;;3.10;99.90;;;;;;7367656;19;20051;-65
2024/02/09 04:44:12;;;;;;;26.50;12.23;;;3.10;99.90;;;;;;7362626;19;20022;-65
2024/02/09 04:46:40;;;;;;;30.45;11.60;;;3.10;99.90;;;;;;7360959;19;20039;-64
2024/02/09 04:49:09;;;;;;;22.52;9.75;;;3.10;99.90;;;;;;7367196;19;20113;-64
2024/02/09 04:51:44;;;;;;;26.73;11.88;;;3.20;99.90;;;;;;7363819;19;20047;-64
2024/02/09 04:54:11;;;;;;;26.60;11.63;;;3.30;99.90;;;;;;7366161;19;20020;-65
2024/02/09 04:56:39;;;;;;;27.83;11.63;;;3.30;99.90;;;;;;7367914;19;20082;-65
2024/02/09 04:59:07;;;;;;;30.83;12.10;;;3.30;99.90;;;;;;7362968;19;20077;-66
2024/02/09 05:01:40;;;;;;;28.05;10.82;;;3.40;99.90;;;;;;7362826;19;20086;-66
2024/02/09 05:04:16;;;;;;;30.98;12.88;;;3.40;99.90;;;;;;7373441;19;20022;-66
2024/02/09 05:06:43;;;;;;;37.20;13.68;;;3.40;99.90;;;;;;7370756;19;20074;-67
2024/02/09 05:09:10;;;;;;;32.17;13.82;;;3.40;99.90;;;;;;7369016;19;20022;-66
2024/02/09 05:11:38;;;;;;;33.05;13.73;;;3.50;99.90;;;;;;7373466;19;20059;-67
2024/02/09 05:14:06;;;;;;;33.20;12.85;;;3.40;99.90;;;;;;7375687;19;20030;-67
2024/02/09 05:16:36;;;;;;;42.58;15.60;;;3.50;99.90;;;;;;7371696;19;20478;-67
2024/02/09 05:19:03;;;;;;;33.13;14.18;;;3.60;99.90;;;;;;7373449;19;20014;-66
2024/02/09 05:21:34;;;;;;;42.20;15.75;;;3.60;99.90;;;;;;7373517;19;20025;-67
2024/02/09 05:24:03;;;;;;;45.50;16.25;;;3.60;99.90;;;;;;7373860;19;20023;-68
2024/02/09 05:26:30;;;;;;;50.33;17.70;;;3.60;99.90;;;;;;7379197;19;20498;-66
2024/02/09 05:28:57;;;;;;;43.75;18.00;;;3.70;99.90;;;;;;7372059;19;20022;-67
2024/02/09 05:31:25;;;;;;;44.20;16.92;;;3.70;99.90;;;;;;7372217;19;20080;-66
2024/02/09 05:33:55;;;;;;;45.28;18.60;;;3.70;99.90;;;;;;7375951;19;20100;-66
2024/02/09 05:36:24;;;;;;;51.13;18.58;;;3.70;99.90;;;;;;7372984;19;20019;-66
2024/02/09 05:38:52;;;;;;;52.45;19.60;;;3.80;99.90;;;;;;7373099;19;20030;-67
2024/02/09 05:41:19;;;;;;;54.10;20.08;;;3.80;99.90;;;;;;7374014;19;20031;-66
2024/02/09 05:43:48;;;;;;;52.08;17.42;;;3.90;99.90;;;;;;7367507;19;20015;-65
2024/02/09 05:46:16;;;;;;;67.20;21.75;;;3.80;99.90;;;;;;7379191;19;20375;-67
2024/02/09 05:48:45;;;;;;;52.58;19.23;;;3.90;99.90;;;;;;7373825;19;20014;-67
2024/02/09 05:51:13;;;;;;;47.58;18.00;;;3.90;99.90;;;;;;7378273;19;20014;-67
2024/02/09 05:53:40;;;;;;;55.63;18.40;;;3.90;99.90;;;;;;7369731;19;20078;-66
2024/02/09 05:56:19;;;;;;;60.35;18.45;;;3.90;99.90;;;;;;7376119;19;20078;-67
2024/02/09 05:58:52;;;;;;;57.25;18.10;;;3.90;99.90;;;;;;7366679;19;20026;-65
2024/02/09 06:01:22;;;;;;;49.10;18.75;;;4.00;99.90;;;;;;7371391;19;20045;-65
2024/02/09 06:03:49;;;;;;;48.63;18.80;;;4.00;99.90;;;;;;7368771;19;20477;-65
2024/02/09 06:06:16;;;;;;;53.17;19.35;;;4.00;99.90;;;;;;7373107;19;20018;-65
2024/02/09 06:08:46;;;;;;;49.92;20.00;;;4.10;99.90;;;;;;7364474;19;20816;-65
2024/02/09 06:11:15;;;;;;;64.57;21.55;;;4.10;99.90;;;;;;7369214;19;20094;-65
2024/02/09 06:13:46;;;;;;;50.33;19.42;;;4.20;99.90;;;;;;7369121;19;20082;-64
2024/02/09 06:16:13;;;;;;;65.00;21.58;;;4.20;99.90;;;;;;7369318;19;20050;-65
2024/02/09 06:18:40;;;;;;;63.67;20.80;;;4.20;99.90;;;;;;7372907;19;20105;-65
2024/02/09 06:21:06;;;;;;;57.28;19.38;;;4.20;99.90;;;;;;7370222;19;20057;-65
2024/02/09 06:23:34;;;;;;;69.75;21.45;;;4.30;99.90;;;;;;7362144;19;20074;-65
2024/02/09 06:26:01;;;;;;;60.38;20.75;;;4.30;99.90;;;;;;7367423;19;20021;-65
2024/02/09 06:28:27;;;;;;;83.13;22.55;;;4.40;99.90;;;;;;7375589;19;20087;-65
2024/02/09 06:30:53;;;;;;;71.88;24.45;;;4.40;99.90;;;;;;7372128;19;20042;-65
2024/02/09 06:33:20;;;;;;;75.63;23.75;;;4.50;99.90;;;;;;7363607;19;20770;-65
2024/02/09 06:35:47;;;;;;;68.97;23.05;;;4.50;99.90;;;;;;7373424;19;20035;-66
2024/02/09 06:38:18;;;;;;;69.03;22.67;;;4.60;99.90;;;;;;7368323;19;20498;-65
2024/02/09 06:40:46;;;;;;;68.28;24.48;;;4.60;99.90;;;;;;7372385;19;20022;-67
2024/02/09 06:43:17;;;;;;;82.65;25.58;;;4.80;99.90;;;;;;7368578;19;20089;-67
2024/02/09 06:45:44;;;;;;;85.80;25.73;;;4.70;99.90;;;;;;7369132;19;20427;-66
2024/02/09 06:48:10;;;;;;;92.30;27.63;;;4.70;99.90;;;;;;7366685;19;20018;-66
2024/02/09 06:50:37;;;;;;;85.55;27.13;;;4.70;99.90;;;;;;7373492;19;20263;-66
2024/02/09 06:53:07;;;;;;;96.72;26.95;;;4.80;99.90;;;;;;7374053;19;20535;-66
2024/02/09 06:55:33;;;;;;;85.22;27.38;;;4.80;99.90;;;;;;7371933;19;20014;-66
2024/02/09 06:58:00;;;;;;;94.00;28.10;;;4.90;99.90;;;;;;7371498;19;20097;-67
2024/02/09 07:00:27;;;;;;;96.75;30.52;;;4.90;99.90;;;;;;7373288;19;20018;-68
2024/02/09 07:02:55;;;;;;;104.07;29.17;;;5.00;99.90;;;;;;7375169;19;20041;-66
2024/02/09 07:05:22;;;;;;;112.18;31.40;;;5.00;99.90;;;;;;7371600;19;20018;-65
2024/02/09 07:07:49;;;;;;;120.90;33.00;;;5.10;99.90;;;;;;7372599;19;20153;-66
2024/02/09 07:10:18;;;;;;;123.18;34.05;;;5.10;99.90;;;;;;7365639;19;20106;-66
2024/02/09 07:12:44;;;;;;;118.35;33.00;;;5.20;99.90;;;;;;7370937;19;20810;-64
2024/02/09 07:15:16;;;;;;;118.55;33.92;;;5.30;99.90;;;;;;7368934;19;20082;-66
2024/02/09 07:17:47;;;;;;;129.00;34.25;;;5.30;99.90;;;;;;7370727;19;20550;-66
2024/02/09 07:20:14;;;;;;;157.48;37.47;;;5.40;99.90;;;;;;7375145;19;20090;-65
2024/02/09 07:22:41;;;;;;;145.15;36.53;;;5.40;99.90;;;;;;7370342;19;20076;-66
2024/02/09 07:25:07;;;;;;;154.73;36.92;;;5.50;99.90;;;;;;7373349;19;20668;-66
2024/02/09 07:27:33;;;;;;;139.27;36.72;;;5.50;99.90;;;;;;7374293;19;20631;-66
2024/02/09 07:29:59;;;;;;;154.45;36.60;;;5.50;99.90;;;;;;7375833;19;20367;-65
2024/02/09 07:32:25;;;;;;;123.20;35.05;;;5.50;99.90;;;;;;7372009;19;20650;-66
2024/02/09 07:34:55;;;;;;;181.38;40.22;;;5.60;99.90;;;;;;7375743;19;20082;-66
2024/02/09 07:37:21;;;;;;;119.45;33.35;;;5.70;99.90;;;;;;7373937;19;20014;-68
2024/02/09 07:39:47;;;;;;;135.10;36.47;;;5.80;99.90;;;;;;7376706;19;20015;-68
2024/02/09 07:42:17;;;;;;;119.20;33.50;;;5.90;99.90;;;;;;7376077;19;20031;-68
2024/02/09 07:44:44;;;;;;;114.80;34.47;;;6.10;99.90;;;;;;7373340;19;20089;-66
2024/02/09 07:47:11;;;;;;;108.07;33.78;;;6.20;99.90;;;;;;7369009;19;20070;-66
2024/02/09 07:49:38;;;;;;;113.30;34.65;;;6.40;99.90;;;;;;7374749;19;20070;-66
2024/02/09 07:52:07;;;;;;;112.72;34.70;;;6.50;99.90;;;;;;7367802;19;20098;-65
2024/02/09 07:54:35;;;;;;;106.97;32.67;;;6.60;99.90;;;;;;7374104;19;20022;-65
2024/02/09 07:57:03;;;;;;;106.75;33.63;;;6.70;99.90;;;;;;7370031;19;20019;-66
2024/02/09 07:59:31;;;;;;;107.63;32.97;;;6.80;99.90;;;;;;7373535;19;20018;-66
2024/02/09 08:01:58;;;;;;;86.70;31.73;;;6.80;99.90;;;;;;7369180;19;20011;-66
2024/02/09 08:04:28;;;;;;;105.53;32.67;;;7.00;99.90;;;;;;7369471;19;20085;-66
2024/02/09 08:06:55;;;;;;;101.55;31.92;;;7.00;99.90;;;;;;7374853;19;21042;-66
2024/02/09 08:09:22;;;;;;;94.40;30.73;;;7.10;99.90;;;;;;7370599;19;20054;-66
2024/02/09 08:11:49;;;;;;;74.78;28.58;;;7.10;99.90;;;;;;7371524;19;20025;-66
2024/02/09 08:14:16;;;;;;;84.57;29.30;;;7.30;99.90;;;;;;7368831;19;20151;-67
2024/02/09 08:16:46;;;;;;;74.82;28.80;;;7.40;99.90;;;;;;7372789;19;20438;-66
2024/02/09 08:19:13;;;;;;;71.70;26.70;;;7.30;99.90;;;;;;7371271;19;20660;-65
2024/02/09 08:21:40;;;;;;;66.05;26.00;;;7.50;99.90;;;;;;7369608;19;20921;-65
2024/02/09 08:24:10;;;;;;;63.65;27.65;;;7.60;99.90;;;;;;7370770;19;20018;-66
2024/02/09 08:26:37;;;;;;;56.25;25.17;;;7.60;99.90;;;;;;7371442;19;20015;-67
2024/02/09 08:29:04;;;;;;;51.55;23.33;;;7.70;99.90;;;;;;7370867;19;20015;-67
2024/02/09 08:31:31;;;;;;;42.08;21.70;;;7.80;99.90;;;;;;7370320;19;20090;-66
2024/02/09 08:33:59;;;;;;;35.75;19.35;;;7.90;99.90;;;;;;7373701;19;20022;-67
2024/02/09 08:36:26;;;;;;;32.65;19.60;;;8.00;99.90;;;;;;7372632;19;20695;-66
2024/02/09 08:38:54;;;;;;;34.05;19.73;;;8.20;99.90;;;;;;7378011;19;20642;-67
2024/02/09 08:41:21;;;;;;;37.33;19.70;;;8.20;99.90;;;;;;7374190;19;20019;-67
2024/02/09 08:43:48;;;;;;;31.45;16.08;;;8.30;99.90;;;;;;7379202;19;20536;-66
2024/02/09 08:46:15;;;;;;;31.25;17.85;;;8.30;99.90;;;;;;7376195;19;20510;-66
2024/02/09 08:48:42;;;;;;;31.00;18.13;;;8.40;99.90;;;;;;7379374;19;20097;-66
2024/02/09 08:51:10;;;;;;;29.42;16.75;;;8.50;99.90;;;;;;7375377;19;20502;-67
2024/02/09 08:53:38;;;;;;;29.60;15.88;;;8.60;99.90;;;;;;7375443;19;20026;-65
2024/02/09 08:56:05;;;;;;;28.67;17.67;;;8.60;99.90;;;;;;7379584;19;20010;-65
2024/02/09 08:58:32;;;;;;;31.05;16.67;;;8.70;99.90;;;;;;7383028;19;20022;-66
2024/02/09 09:00:59;;;;;;;32.08;15.13;;;8.70;99.90;;;;;;7379349;19;20475;-68
2024/02/09 09:03:27;;;;;;;29.85;15.73;;;8.70;99.90;;;;;;7383434;19;20031;-68
2024/02/09 09:05:53;;;;;;;32.17;16.33;;;8.70;99.90;;;;;;7381223;19;20021;-66
2024/02/09 09:08:20;;;;;;;25.88;13.88;;;8.70;99.90;;;;;;7378143;19;20052;-65
2024/02/09 09:10:46;;;;;;;24.60;14.32;;;8.90;99.90;;;;;;7377854;19;20022;-66
2024/02/09 09:13:13;;;;;;;26.23;13.73;;;8.90;99.90;;;;;;7375218;19;20018;-66
2024/02/09 09:15:41;;;;;;;23.55;14.18;;;9.00;99.90;;;;;;7380386;19;20015;-65
2024/02/09 09:18:07;;;;;;;27.90;14.20;;;9.00;99.90;;;;;;7376667;19;20017;-65
2024/02/09 09:20:35;;;;;;;23.77;13.43;;;9.00;99.90;;;;;;7380041;19;20023;-67
2024/02/09 09:23:02;;;;;;;22.15;13.55;;;9.10;99.90;;;;;;7381712;19;20019;-68
2024/02/09 09:25:31;;;;;;;24.65;13.40;;;9.10;99.90;;;;;;7380799;19;20014;-68
2024/02/09 09:27:58;;;;;;;19.38;12.13;;;9.10;99.90;;;;;;7385189;19;20439;-68
2024/02/09 09:30:25;;;;;;;21.90;13.02;;;9.20;99.90;;;;;;7379395;19;21414;-66
2024/02/09 09:32:52;;;;;;;18.70;10.70;;;9.20;99.90;;;;;;7375759;19;20021;-66
2024/02/09 09:35:18;;;;;;;21.45;11.80;;;9.20;99.90;;;;;;7375460;19;20014;-65
2024/02/09 09:37:45;;;;;;;23.13;11.43;;;9.10;99.90;;;;;;7384213;19;20059;-68
2024/02/09 09:40:14;;;;;;;18.45;9.93;;;9.10;99.90;;;;;;7379566;19;20022;-68
2024/02/09 09:42:44;;;;;;;19.58;11.20;;;9.20;99.90;;;;;;7379564;19;20031;-64
2024/02/09 09:45:10;;;;;;;21.10;10.98;;;9.20;99.90;;;;;;7373953;19;20075;-64
2024/02/09 09:47:40;;;;;;;19.17;11.52;;;9.20;99.90;;;;;;7373390;19;20022;-63
2024/02/09 09:50:10;;;;;;;22.20;11.18;;;9.20;99.90;;;;;;7379077;19;20462;-63
2024/02/09 09:52:44;;;;;;;19.10;10.65;;;9.20;99.90;;;;;;7376526;19;20045;-63
2024/02/09 09:55:13;;;;;;;19.90;10.40;;;9.30;99.90;;;;;;7373330;19;20600;-63
2024/02/09 09:57:39;;;;;;;15.93;8.93;;;9.30;99.90;;;;;;7380325;19;20478;-66
2024/02/09 10:00:07;;;;;;;17.23;9.38;;;9.30;99.90;;;;;;7380697;19;20013;-67
2024/02/09 10:02:37;;;;;;;18.73;10.25;;;9.40;99.90;;;;;;7376380;19;20035;-65
2024/02/09 10:05:09;;;;;;;14.75;10.20;;;9.50;99.90;;;;;;7374293;19;20489;-70
2024/02/09 10:07:40;;;;;;;20.73;10.30;;;9.60;99.90;;;;;;7376083;19;20620;-65
2024/02/09 10:10:11;;;;;;;17.65;10.80;;;9.70;99.90;;;;;;7375864;19;20418;-65
2024/02/09 10:12:38;;;;;;;19.58;10.18;;;9.80;99.90;;;;;;7373369;19;20650;-64
2024/02/09 10:15:06;;;;;;;16.65;9.50;;;10.00;99.90;;;;;;7378037;19;20026;-66
2024/02/09 10:17:35;;;;;;;17.27;10.18;;;10.00;99.90;;;;;;7377168;19;20041;-66
2024/02/09 10:20:03;;;;;;;15.07;10.30;;;9.90;99.90;;;;;;7376163;19;20015;-66
2024/02/09 10:22:30;;;;;;;18.15;9.38;;;9.90;99.90;;;;;;7377964;19;20011;-64
2024/02/09 10:24:56;;;;;;;15.32;9.98;;;9.90;99.90;;;;;;7371173;19;20491;-64
2024/02/09 10:27:22;;;;;;;19.25;9.57;;;9.80;99.90;;;;;;7375028;19;20636;-64
2024/02/09 10:29:48;;;;;;;16.25;9.40;;;9.80;99.90;;;;;;7374888;19;20086;-64
2024/02/09 10:32:15;;;;;;;16.98;9.02;;;9.80;99.90;;;;;;7375555;19;20022;-67
2024/02/09 10:34:42;;;;;;;13.10;8.23;;;9.80;99.90;;;;;;7374034;19;20022;-67
2024/02/09 10:37:08;;;;;;;16.05;8.82;;;9.90;99.90;;;;;;7378982;19;20019;-67
2024/02/09 10:39:34;;;;;;;13.40;9.60;;;9.90;99.90;;;;;;7375204;19;20082;-67
2024/02/09 10:42:04;;;;;;;16.02;9.10;;;9.90;99.90;;;;;;7374730;19;20021;-67
2024/02/09 10:44:36;;;;;;;15.85;9.05;;;10.00;99.90;;;;;;7371857;19;20113;-66
2024/02/09 10:47:08;;;;;;;15.80;9.15;;;10.00;99.90;;;;;;7372394;19;20091;-68
2024/02/09 10:49:39;;;;;;;15.20;9.27;;;10.10;99.90;;;;;;7378213;19;20385;-67
2024/02/09 10:52:09;;;;;;;14.63;9.30;;;10.20;99.90;;;;;;7374500;19;20023;-67
2024/02/09 10:54:49;;;;;;;13.90;9.13;;;10.30;99.90;;;;;;7378017;19;20022;-67
2024/02/09 10:57:15;;;;;;;13.70;8.55;;;10.30;99.90;;;;;;7373283;19;20835;-68
2024/02/09 10:59:43;;;;;;;15.55;8.95;;;10.30;99.90;;;;;;7375081;19;20018;-68
2024/02/09 11:02:11;;;;;;;15.93;8.02;;;10.30;99.90;;;;;;7374136;19;20019;-66
2024/02/09 11:04:38;;;;;;;13.30;8.75;;;10.40;99.90;;;;;;7371721;19;20021;-65
2024/02/09 11:07:05;;;;;;;16.15;8.43;;;10.40;99.90;;;;;;7373914;19;20434;-66
2024/02/09 11:09:31;;;;;;;18.33;8.80;;;10.50;99.90;;;;;;7374336;19;20625;-66
2024/02/09 11:12:04;;;;;;;14.55;8.15;;;10.60;99.90;;;;;;7372431;19;20102;-66
2024/02/09 11:14:33;;;;;;;30.30;23.05;;;10.70;99.90;;;;;;7373596;19;20029;-67
2024/02/09 11:17:09;;;;;;;12.98;9.35;;;10.70;99.90;;;;;;7374380;19;20106;-66
2024/02/09 11:19:38;;;;;;;17.20;9.13;;;10.60;99.90;;;;;;7374872;19;20022;-66
2024/02/09 11:22:06;;;;;;;14.20;8.85;;;10.60;99.90;;;;;;7376250;19;20046;-66
2024/02/09 11:24:36;;;;;;;13.23;8.88;;;10.50;99.90;;;;;;7370498;19;20011;-65
2024/02/09 11:27:04;;;;;;;11.15;7.95;;;10.50;99.90;;;;;;7371010;19;20373;-66
2024/02/09 11:29:34;;;;;;;12.80;8.38;;;10.50;99.90;;;;;;7375107;19;20022;-66
2024/02/09 11:32:02;;;;;;;12.10;8.18;;;10.40;99.90;;;;;;7375175;19;20022;-67
2024/02/09 11:34:30;;;;;;;9.52;7.18;;;10.60;99.90;;;;;;7377658;19;20113;-66
2024/02/09 11:37:00;;;;;;;10.75;8.20;;;10.70;99.90;;;;;;7377664;19;20018;-65
2024/02/09 11:39:34;;;;;;;12.73;8.18;;;11.00;99.90;;;;;;7373129;19;20018;-66
2024/02/09 11:42:02;;;;;;;14.68;8.85;;;11.30;99.90;;;;;;7375981;19;20946;-66
2024/02/09 11:44:29;;;;;;;13.00;7.57;;;11.20;99.90;;;;;;7372750;19;20025;-69
2024/02/09 11:46:56;;;;;;;10.15;7.43;;;11.20;99.90;;;;;;7376140;19;20025;-70
2024/02/09 11:49:27;;;;;;;11.52;7.00;;;11.10;99.90;;;;;;7372650;19;20010;-66
2024/02/09 11:52:01;;;;;;;11.73;7.35;;;11.20;99.90;;;;;;7375126;19;20532;-66
2024/02/09 11:54:29;;;;;;;13.32;6.80;;;11.20;99.90;;;;;;7374559;19;20022;-65
2024/02/09 11:56:57;;;;;;;11.00;7.40;;;11.10;99.90;;;;;;7371577;19;20047;-65
2024/02/09 11:59:29;;;;;;;11.50;7.05;;;11.30;99.90;;;;;;7372261;19;20023;-69
2024/02/09 12:01:55;;;;;;;8.90;7.18;;;11.30;99.90;;;;;;7374243;19;20588;-70
2024/02/09 12:04:23;;;;;;;15.18;7.28;;;11.50;99.90;;;;;;7370713;19;20018;-65
2024/02/09 12:06:50;;;;;;;10.93;6.72;;;11.90;99.90;;;;;;7372385;19;20017;-67
2024/02/09 12:09:16;;;;;;;11.50;6.30;;;12.30;99.90;;;;;;7373510;19;20029;-69
2024/02/09 12:11:47;;;;;;;12.05;6.65;;;12.30;99.90;;;;;;7371857;19;20110;-70
2024/02/09 12:14:13;;;;;;;12.05;6.07;;;12.20;99.90;;;;;;7371064;19;20018;-65
2024/02/09 12:16:40;;;;;;;8.57;5.70;;;12.10;99.90;;;;;;7369669;19;20031;-66
2024/02/09 12:19:06;;;;;;;10.82;5.95;;;11.80;99.90;;;;;;7369707;19;20086;-65
2024/02/09 12:21:32;;;;;;;8.43;5.68;;;11.70;99.90;;;;;;7370614;19;20494;-66
2024/02/09 12:23:58;;;;;;;9.73;5.68;;;11.60;99.90;;;;;;7370328;19;20450;-65
2024/02/09 12:26:25;;;;;;;8.50;6.00;;;11.50;99.90;;;;;;7370458;19;20014;-70
2024/02/09 12:28:53;;;;;;;12.23;6.20;;;11.40;99.90;;;;;;7369188;19;20109;-70
2024/02/09 12:31:21;;;;;;;10.23;6.32;;;11.40;99.90;;;;;;7372013;19;20018;-66
2024/02/09 12:33:49;;;;;;;10.82;6.43;;;11.30;99.90;;;;;;7370976;19;20015;-65
2024/02/09 12:36:22;;;;;;;11.20;6.43;;;11.40;99.90;;;;;;7373445;19;20385;-66
2024/02/09 12:38:56;;;;;;;12.25;6.63;;;11.30;99.90;;;;;;7370484;19;20094;-66
2024/02/09 12:41:24;;;;;;;12.25;6.75;;;11.30;99.90;;;;;;7371624;19;20019;-70
2024/02/09 12:44:01;;;;;;;12.93;6.47;;;11.20;99.90;;;;;;7370778;19;20018;-70
2024/02/09 12:46:27;;;;;;;9.02;6.07;;;11.20;99.90;;;;;;7369782;19;20038;-70
2024/02/09 12:48:55;;;;;;;9.38;6.25;;;11.20;99.90;;;;;;7370771;19;20018;-70
2024/02/09 12:51:25;;;;;;;11.32;5.88;;;11.10;99.90;;;;;;7368408;19;20018;-70
2024/02/09 12:53:51;;;;;;;10.27;5.78;;;11.20;99.90;;;;;;7370054;19;20672;-70
2024/02/09 12:56:18;;;;;;;10.18;5.95;;;11.20;99.90;;;;;;7367896;19;20828;-66
2024/02/09 12:58:45;;;;;;;12.70;5.72;;;11.30;99.90;;;;;;7370961;19;20039;-66
2024/02/09 13:01:11;;;;;;;12.13;5.43;;;11.30;99.90;;;;;;7367444;19;20658;-67
2024/02/09 13:03:40;;;;;;;13.68;5.45;;;11.30;99.90;;;;;;7367084;19;20087;-66
2024/02/09 13:06:07;;;;;;;10.55;5.68;;;11.30;99.90;;;;;;7368684;19;20098;-66
2024/02/09 13:08:33;;;;;;;7.93;5.80;;;11.30;99.90;;;;;;7369192;19;20010;-66
2024/02/09 13:11:00;;;;;;;11.98;5.70;;;11.40;99.90;;;;;;7370064;19;20019;-66
2024/02/09 13:13:26;;;;;;;8.68;5.40;;;11.50;99.90;;;;;;7370306;19;20046;-66
2024/02/09 13:15:52;;;;;;;9.90;5.53;;;11.50;99.90;;;;;;7364787;19;20045;-66
2024/02/09 13:18:19;;;;;;;9.82;5.38;;;11.50;99.90;;;;;;7372191;19;20034;-66
2024/02/09 13:20:45;;;;;;;8.70;5.70;;;11.50;99.90;;;;;;7367602;19;20022;-66
2024/02/09 13:23:12;;;;;;;7.72;5.65;;;11.40;99.90;;;;;;7376915;19;20022;-70
2024/02/09 13:25:40;;;;;;;9.93;6.03;;;11.40;99.90;;;;;;7371552;19;20019;-70
2024/02/09 13:28:07;;;;;;;8.75;5.22;;;11.30;99.90;;;;;;7376172;19;20768;-65
2024/02/09 13:30:34;;;;;;;11.25;5.50;;;11.20;99.90;;;;;;7376792;19;20014;-66
2024/02/09 13:33:01;;;;;;;12.15;6.35;;;11.20;99.90;;;;;;7377492;19;20049;-66
2024/02/09 13:35:28;;;;;;;9.35;6.10;;;11.10;99.90;;;;;;7374555;19;20019;-66
2024/02/09 13:37:55;;;;;;;8.75;5.90;;;11.00;99.90;;;;;;7376945;19;20014;-71
2024/02/09 13:40:22;;;;;;;8.57;5.40;;;11.10;99.90;;;;;;7377268;19;20018;-70
2024/02/09 13:42:50;;;;;;;8.65;6.30;;;11.10;99.90;;;;;;7376777;19;20517;-70
2024/02/09 13:45:19;;;;;;;10.48;6.15;;;11.10;99.90;;;;;;7376481;19;20022;-70
2024/02/09 13:47:45;;;;;;;10.35;6.28;;;11.10;99.90;;;;;;7375128;19;20018;-70
2024/02/09 13:50:12;;;;;;;11.02;5.88;;;11.20;99.90;;;;;;7376585;19;20018;-65
2024/02/09 13:52:39;;;;;;;8.55;5.55;;;11.10;99.90;;;;;;7374575;19;20058;-71
2024/02/09 13:55:13;;;;;;;11.32;6.63;;;11.10;99.90;;;;;;7375359;19;20038;-71
2024/02/09 13:57:43;;;;;;;8.70;5.55;;;11.10;99.90;;;;;;7380044;19;20033;-70
2024/02/09 14:00:12;;;;;;;13.30;5.90;;;11.10;99.90;;;;;;7374838;19;20026;-66
2024/02/09 14:02:39;;;;;;;9.05;5.50;;;11.20;99.90;;;;;;7378333;19;20608;-70
2024/02/09 14:05:06;;;;;;;8.15;5.20;;;11.20;99.90;;;;;;7375595;19;20023;-70
2024/02/09 14:07:32;;;;;;;11.02;5.50;;;11.20;99.90;;;;;;7374541;19;20025;-71
2024/02/09 14:09:58;;;;;;;8.85;4.95;;;11.30;99.90;;;;;;7379816;19;20018;-70
2024/02/09 14:12:25;;;;;;;9.43;4.18;;;11.30;99.90;;;;;;7376804;19;20027;-70
2024/02/09 14:14:51;;;;;;;10.48;4.93;;;11.40;99.90;;;;;;7376650;19;20014;-70
2024/02/09 14:17:17;;;;;;;9.52;4.45;;;11.50;99.90;;;;;;7377502;19;20037;-66
2024/02/09 14:19:43;;;;;;;7.85;4.47;;;11.50;99.90;;;;;;7375612;19;20363;-66
2024/02/09 14:22:11;;;;;;;9.85;4.07;;;11.60;99.90;;;;;;7377744;19;20060;-66
2024/02/09 14:24:38;;;;;;;5.75;3.80;;;11.70;99.90;;;;;;7373099;19;20015;-66
2024/02/09 14:27:11;;;;;;;7.38;4.43;;;11.70;99.90;;;;;;7376985;19;20062;-66
2024/02/09 14:29:41;;;;;;;5.97;4.57;;;11.80;99.90;;;;;;7373987;19;20018;-65
2024/02/09 14:32:08;;;;;;;8.32;4.05;;;11.80;99.90;;;;;;7367663;19;20089;-65
2024/02/09 14:34:35;;;;;;;6.18;3.75;;;11.90;99.90;;;;;;7371894;19;20411;-72